Time;durP1;ratioP1;P1;durP2;ratioP2;P2;SDS_P1;SDS_P2;PMS_P1;PMS_P2;Temp;Humidity;BMP_temperature;BMP_pressure;BME280_temperature;BME280_humidity;BME280_pressure;Samples;Min_cycle;Max_cycle;Signal;HPM_P1;HPM_P2
2023/10/20 00:00:35;;;;;;;1.67;1.10;;;14.60;99.90;;;;;;5137427;27;20495;-60
2023/10/20 00:03:03;;;;;;;1.60;1.10;;;14.60;99.90;;;;;;5137281;27;20837;-60
2023/10/20 00:05:30;;;;;;;1.73;1.00;;;14.60;99.90;;;;;;5137540;27;20414;-60
2023/10/20 00:07:57;;;;;;;1.77;1.10;;;14.70;99.90;;;;;;5136637;27;20462;-60
2023/10/20 00:10:24;;;;;;;1.50;1.00;;;14.60;99.90;;;;;;5137071;27;20750;-61
2023/10/20 00:12:51;;;;;;;1.40;0.90;;;14.70;99.90;;;;;;5136960;27;20425;-61
2023/10/20 00:15:20;;;;;;;1.50;0.90;;;14.70;99.90;;;;;;5137579;27;20426;-60
2023/10/20 00:17:47;;;;;;;1.85;1.10;;;14.80;99.90;;;;;;5136598;27;20417;-60
2023/10/20 00:20:14;;;;;;;1.33;0.90;;;14.70;99.90;;;;;;5137288;27;20415;-60
2023/10/20 00:22:42;;;;;;;1.38;0.90;;;14.80;99.90;;;;;;5137453;27;20833;-60
2023/10/20 00:25:11;;;;;;;2.10;1.00;;;14.80;99.90;;;;;;5136877;27;20418;-60
2023/10/20 00:27:38;;;;;;;2.05;1.08;;;14.80;99.90;;;;;;5136738;27;20427;-60
2023/10/20 00:30:07;;;;;;;2.25;1.10;;;14.80;99.90;;;;;;5136748;27;20475;-60
2023/10/20 00:32:35;;;;;;;1.70;0.90;;;14.80;99.90;;;;;;5136997;27;20492;-60
2023/10/20 00:35:03;;;;;;;1.30;0.90;;;14.80;99.90;;;;;;5136976;27;20410;-60
2023/10/20 00:37:31;;;;;;;1.88;0.90;;;14.80;99.90;;;;;;5136143;27;20516;-60
2023/10/20 00:39:57;;;;;;;1.30;0.90;;;14.80;99.90;;;;;;5136655;27;20833;-60
2023/10/20 00:42:25;;;;;;;1.52;1.00;;;14.70;99.90;;;;;;5136700;27;20415;-60
2023/10/20 00:44:51;;;;;;;1.60;1.00;;;14.70;99.90;;;;;;5136747;27;20778;-60
2023/10/20 00:47:19;;;;;;;2.40;1.10;;;14.60;99.90;;;;;;5136387;27;20417;-60
2023/10/20 00:49:47;;;;;;;1.60;1.20;;;14.60;99.90;;;;;;5136862;27;20430;-61
2023/10/20 00:52:15;;;;;;;2.25;1.20;;;14.60;99.90;;;;;;5135111;27;20414;-61
2023/10/20 00:54:44;;;;;;;1.77;1.20;;;14.60;99.90;;;;;;5136512;27;20518;-61
2023/10/20 00:57:12;;;;;;;1.55;1.10;;;14.60;99.90;;;;;;5136281;27;20423;-60
2023/10/20 00:59:39;;;;;;;1.60;1.00;;;14.50;99.90;;;;;;5136018;27;20413;-60
2023/10/20 01:02:06;;;;;;;2.20;1.10;;;14.50;99.90;;;;;;5134553;27;20419;-60
2023/10/20 01:04:33;;;;;;;1.50;1.00;;;14.50;99.90;;;;;;5134938;27;20868;-60
2023/10/20 01:07:02;;;;;;;1.88;1.00;;;14.50;99.90;;;;;;5136414;27;20833;-60
2023/10/20 01:09:29;;;;;;;1.77;1.00;;;14.50;99.90;;;;;;5134638;27;20538;-58
2023/10/20 01:11:56;;;;;;;1.90;1.00;;;14.50;99.90;;;;;;5133716;27;20414;-60
2023/10/20 01:14:23;;;;;;;1.50;0.90;;;14.50;99.90;;;;;;5133192;27;20850;-60
2023/10/20 01:16:50;;;;;;;2.20;1.00;;;14.60;99.90;;;;;;5133036;27;20434;-60
2023/10/20 01:19:17;;;;;;;2.60;1.00;;;14.70;99.90;;;;;;5132356;27;20418;-59
2023/10/20 01:21:44;;;;;;;1.50;0.90;;;14.70;99.90;;;;;;5132723;27;20418;-60
2023/10/20 01:24:13;;;;;;;1.45;0.90;;;14.70;99.90;;;;;;5133515;27;20419;-60
2023/10/20 01:26:40;;;;;;;1.30;0.80;;;14.70;99.90;;;;;;5135183;27;20887;-60
2023/10/20 01:29:09;;;;;;;1.40;1.00;;;14.80;99.90;;;;;;5135517;27;20475;-60
2023/10/20 01:31:36;;;;;;;2.65;1.08;;;14.80;99.90;;;;;;5135844;27;20453;-60
2023/10/20 01:34:03;;;;;;;2.00;1.10;;;14.70;99.90;;;;;;5136172;27;20830;-60
2023/10/20 01:36:30;;;;;;;2.30;1.10;;;14.70;99.90;;;;;;5135842;27;20422;-60
2023/10/20 01:38:58;;;;;;;1.70;1.00;;;14.70;99.90;;;;;;5135537;27;20545;-60
2023/10/20 01:41:27;;;;;;;1.50;1.00;;;14.80;99.90;;;;;;5136184;28;20715;-60
2023/10/20 01:43:54;;;;;;;1.30;0.85;;;14.70;99.90;;;;;;5135301;28;20422;-60
2023/10/20 01:46:21;;;;;;;1.60;0.85;;;14.70;99.90;;;;;;5136027;28;20414;-60
2023/10/20 01:48:48;;;;;;;3.43;1.20;;;14.70;99.90;;;;;;5135664;28;20426;-60
2023/10/20 01:51:15;;;;;;;3.10;1.10;;;14.70;99.90;;;;;;5135731;28;20418;-61
2023/10/20 01:53:42;;;;;;;2.00;1.00;;;14.70;99.90;;;;;;5135701;28;21005;-60
2023/10/20 01:56:09;;;;;;;1.80;1.00;;;14.70;99.90;;;;;;5135197;28;20420;-60
2023/10/20 01:58:37;;;;;;;1.30;0.90;;;14.70;99.90;;;;;;5135345;28;20755;-60
2023/10/20 02:01:04;;;;;;;1.30;0.90;;;14.70;99.90;;;;;;5132834;28;20426;-60
2023/10/20 02:03:31;;;;;;;1.83;1.00;;;14.70;99.90;;;;;;5135178;27;20426;-60
2023/10/20 02:05:58;;;;;;;1.30;0.90;;;14.70;99.90;;;;;;5137934;27;20410;-60
2023/10/20 02:08:25;;;;;;;2.27;1.20;;;14.70;99.90;;;;;;5136781;27;20471;-58
2023/10/20 02:10:52;;;;;;;1.40;0.90;;;14.70;99.90;;;;;;5137723;27;20426;-60
2023/10/20 02:13:19;;;;;;;1.70;0.90;;;14.60;99.90;;;;;;5138300;27;20418;-60
2023/10/20 02:15:50;;;;;;;1.10;0.80;;;14.60;99.90;;;;;;5137352;27;20829;-60
2023/10/20 02:18:17;;;;;;;1.70;0.90;;;14.60;99.90;;;;;;5137464;27;20414;-60
2023/10/20 02:20:44;;;;;;;1.70;0.90;;;14.50;99.90;;;;;;5138252;27;20910;-60
2023/10/20 02:23:11;;;;;;;1.48;0.88;;;14.50;99.90;;;;;;5139492;27;20413;-60
2023/10/20 02:25:38;;;;;;;1.10;0.80;;;14.40;99.90;;;;;;5139174;27;20491;-60
2023/10/20 02:28:07;;;;;;;1.65;1.10;;;14.50;99.90;;;;;;5139314;27;20414;-60
2023/10/20 02:30:33;;;;;;;1.60;0.80;;;14.50;99.90;;;;;;5139194;27;20433;-60
2023/10/20 02:33:03;;;;;;;2.10;0.90;;;14.40;99.90;;;;;;5139407;27;20422;-57
2023/10/20 02:35:30;;;;;;;1.15;0.70;;;14.40;99.90;;;;;;5139517;27;20410;-60
2023/10/20 02:37:57;;;;;;;1.20;0.80;;;14.40;99.90;;;;;;5138956;27;20500;-60
2023/10/20 02:40:24;;;;;;;1.20;0.85;;;14.50;99.90;;;;;;5139052;27;20837;-60
2023/10/20 02:42:51;;;;;;;1.60;0.90;;;14.50;99.90;;;;;;5139113;27;20433;-60
2023/10/20 02:45:18;;;;;;;2.15;1.20;;;14.60;99.90;;;;;;5139340;27;21038;-60
2023/10/20 02:47:45;;;;;;;1.50;0.90;;;14.50;99.90;;;;;;5138876;27;20467;-60
2023/10/20 02:50:14;;;;;;;1.30;0.90;;;14.40;99.90;;;;;;5138359;27;20426;-64
2023/10/20 02:52:41;;;;;;;1.85;0.70;;;14.40;99.90;;;;;;5139173;27;20557;-60
2023/10/20 02:55:09;;;;;;;1.20;0.80;;;14.40;99.90;;;;;;5139396;27;21122;-60
2023/10/20 02:57:37;;;;;;;1.40;0.80;;;14.40;99.90;;;;;;5138629;27;20517;-59
2023/10/20 03:00:10;;;;;;;1.60;0.70;;;14.40;99.90;;;;;;5138237;27;20733;-59
2023/10/20 03:02:37;;;;;;;1.40;0.80;;;14.50;99.90;;;;;;5138741;27;20455;-59
2023/10/20 03:05:06;;;;;;;1.17;0.70;;;14.50;99.90;;;;;;5138658;27;20410;-59
2023/10/20 03:07:34;;;;;;;0.90;0.68;;;14.50;99.90;;;;;;5138337;27;20429;-59
2023/10/20 03:10:02;;;;;;;1.10;0.60;;;14.50;99.90;;;;;;5138220;27;20430;-60
2023/10/20 03:12:29;;;;;;;2.00;0.60;;;14.50;99.90;;;;;;5138249;27;20691;-60
2023/10/20 03:14:56;;;;;;;1.10;0.80;;;14.40;99.90;;;;;;5137780;27;20471;-60
2023/10/20 03:17:23;;;;;;;1.65;0.60;;;14.40;99.90;;;;;;5137828;27;20411;-59
2023/10/20 03:19:51;;;;;;;1.25;0.80;;;14.40;99.90;;;;;;5137606;27;20422;-60
2023/10/20 03:22:18;;;;;;;1.10;0.70;;;14.40;99.90;;;;;;5138247;27;20524;-60
2023/10/20 03:24:46;;;;;;;1.45;0.70;;;14.30;99.90;;;;;;5137893;27;20414;-60
2023/10/20 03:27:13;;;;;;;1.60;0.60;;;14.30;99.90;;;;;;5138672;27;20421;-61
2023/10/20 03:29:40;;;;;;;1.50;0.80;;;14.30;99.90;;;;;;5137393;27;20483;-61
2023/10/20 03:32:07;;;;;;;1.00;0.60;;;14.40;99.90;;;;;;5136648;27;20417;-61
2023/10/20 03:34:35;;;;;;;1.50;0.70;;;14.40;99.90;;;;;;5137537;27;20445;-60
2023/10/20 03:37:02;;;;;;;1.40;0.80;;;14.50;99.90;;;;;;5137714;27;20414;-60
2023/10/20 03:39:32;;;;;;;1.30;0.80;;;14.50;99.90;;;;;;5137104;27;20846;-60
2023/10/20 03:42:02;;;;;;;1.10;0.70;;;14.40;99.90;;;;;;5137266;27;20422;-60
2023/10/20 03:44:29;;;;;;;1.10;0.70;;;14.30;99.90;;;;;;5137586;27;20418;-60
2023/10/20 03:46:59;;;;;;;3.03;0.82;;;14.40;99.90;;;;;;5137742;27;20455;-60
2023/10/20 03:49:26;;;;;;;1.10;0.73;;;14.30;99.90;;;;;;5137991;27;20426;-60
2023/10/20 03:51:53;;;;;;;1.60;0.80;;;14.30;99.90;;;;;;5138011;27;20896;-60
2023/10/20 03:54:24;;;;;;;1.15;0.73;;;14.20;99.90;;;;;;5137925;27;20872;-61
2023/10/20 03:56:51;;;;;;;1.30;0.80;;;14.10;99.90;;;;;;5137509;27;20492;-60
2023/10/20 03:59:19;;;;;;;1.70;0.80;;;14.20;99.90;;;;;;5137420;27;20426;-61
2023/10/20 04:01:46;;;;;;;1.60;0.90;;;14.20;99.90;;;;;;5137355;27;20433;-60
2023/10/20 04:04:13;;;;;;;2.53;0.80;;;14.20;99.90;;;;;;5136855;27;20825;-61
2023/10/20 04:06:40;;;;;;;1.25;0.80;;;14.20;99.90;;;;;;5137753;27;20483;-61
2023/10/20 04:09:09;;;;;;;1.80;0.90;;;14.20;99.90;;;;;;5137072;27;20434;-60
2023/10/20 04:11:36;;;;;;;1.40;0.80;;;14.30;99.90;;;;;;5137080;27;20415;-60
2023/10/20 04:14:05;;;;;;;2.38;0.80;;;14.30;99.90;;;;;;5135831;27;20414;-60
2023/10/20 04:16:39;;;;;;;1.37;0.83;;;14.30;99.90;;;;;;5136875;27;20426;-60
2023/10/20 04:19:06;;;;;;;1.50;0.70;;;14.30;99.90;;;;;;5134865;27;20770;-61
2023/10/20 04:21:35;;;;;;;1.23;0.80;;;14.40;99.90;;;;;;5134952;27;20418;-60
2023/10/20 04:24:02;;;;;;;3.78;1.00;;;14.40;99.90;;;;;;5135843;27;20429;-60
2023/10/20 04:26:31;;;;;;;2.08;1.10;;;14.40;99.90;;;;;;5135648;27;20822;-59
2023/10/20 04:29:08;;;;;;;3.38;1.10;;;14.30;99.90;;;;;;5136090;27;20426;-60
2023/10/20 04:42:55;;;;;;;1.90;1.10;;;14.10;99.90;;;;;;5135457;27;20455;-60
2023/10/20 04:48:35;;;;;;;1.92;1.00;;;14.30;99.90;;;;;;5051508;28;20504;-59
2023/10/20 04:51:18;;;;;;;2.93;0.90;;;14.30;99.90;;;;;;5051666;28;20449;-60
2023/10/20 04:53:54;;;;;;;2.40;1.08;;;14.30;99.90;;;;;;5105058;27;20414;-59
2023/10/20 04:56:36;;;;;;;2.42;1.00;;;14.30;99.90;;;;;;5135911;27;20841;-59
2023/10/20 04:59:09;;;;;;;1.70;1.00;;;14.30;99.90;;;;;;5135228;27;20420;-60
2023/10/20 05:01:44;;;;;;;1.83;1.17;;;14.30;99.90;;;;;;5135357;27;20425;-59
2023/10/20 05:04:16;;;;;;;1.40;0.90;;;14.30;99.90;;;;;;5135638;27;20419;-60
2023/10/20 05:06:45;;;;;;;1.65;0.90;;;14.20;99.90;;;;;;5135707;27;20476;-59
2023/10/20 05:09:14;;;;;;;2.30;0.90;;;14.20;99.90;;;;;;5135295;27;20426;-59
2023/10/20 05:11:41;;;;;;;1.27;0.90;;;14.20;99.90;;;;;;5135697;27;20425;-59
2023/10/20 05:14:08;;;;;;;1.65;0.80;;;14.20;99.90;;;;;;5134899;27;20704;-60
2023/10/20 05:16:35;;;;;;;1.50;1.00;;;14.20;99.90;;;;;;5133269;27;20710;-60
2023/10/20 05:19:04;;;;;;;2.00;0.90;;;14.20;99.90;;;;;;5133853;27;20845;-60
2023/10/20 05:21:34;;;;;;;1.40;0.90;;;14.20;99.90;;;;;;5133620;27;20423;-60
2023/10/20 05:24:04;;;;;;;1.80;1.10;;;14.10;99.90;;;;;;5133049;27;20422;-60
2023/10/20 05:26:32;;;;;;;2.03;0.90;;;14.10;99.90;;;;;;5133210;27;20840;-59
2023/10/20 05:28:59;;;;;;;1.33;0.90;;;14.10;99.90;;;;;;5134892;27;20417;-60
2023/10/20 05:31:27;;;;;;;1.70;0.90;;;14.00;99.90;;;;;;5134823;27;20418;-60
2023/10/20 05:33:54;;;;;;;2.15;0.80;;;14.10;99.90;;;;;;5135152;27;20479;-59
2023/10/20 05:36:21;;;;;;;1.70;0.80;;;14.20;99.90;;;;;;5134771;27;20422;-60
2023/10/20 05:38:49;;;;;;;3.38;0.90;;;14.20;99.90;;;;;;5133298;27;20414;-60
2023/10/20 05:41:16;;;;;;;1.20;0.80;;;14.10;99.90;;;;;;5134465;27;20475;-60
2023/10/20 05:43:43;;;;;;;1.85;1.00;;;14.10;99.90;;;;;;5135637;28;20491;-60
2023/10/20 05:46:17;;;;;;;1.90;1.00;;;14.20;99.90;;;;;;5135733;28;20422;-59
2023/10/20 05:48:44;;;;;;;1.83;1.00;;;14.10;99.90;;;;;;5133991;28;20709;-59
2023/10/20 05:51:12;;;;;;;1.50;0.90;;;14.20;99.90;;;;;;5135604;28;20430;-60
2023/10/20 05:53:39;;;;;;;1.90;1.20;;;14.10;99.90;;;;;;5135660;28;20441;-60
2023/10/20 05:56:08;;;;;;;2.00;1.00;;;14.00;99.90;;;;;;5134895;28;20417;-60
2023/10/20 05:58:35;;;;;;;2.30;0.90;;;14.10;99.90;;;;;;5134727;28;20423;-61
2023/10/20 06:01:09;;;;;;;1.90;1.00;;;14.00;99.90;;;;;;5135057;28;20530;-61
2023/10/20 06:03:36;;;;;;;1.73;1.10;;;14.00;99.90;;;;;;5134822;28;20422;-60
2023/10/20 06:06:04;;;;;;;2.05;1.10;;;14.00;99.90;;;;;;5132667;28;20826;-61
2023/10/20 06:08:31;;;;;;;2.25;1.00;;;14.00;99.90;;;;;;5132091;27;20422;-61
2023/10/20 06:11:03;;;;;;;1.60;0.90;;;13.90;99.90;;;;;;5131784;27;20431;-58
2023/10/20 06:13:32;;;;;;;2.00;1.00;;;14.00;99.90;;;;;;5133128;27;20469;-60
2023/10/20 06:16:06;;;;;;;1.80;1.00;;;14.00;99.90;;;;;;5120696;27;20475;-60
2023/10/20 06:18:35;;;;;;;2.20;1.20;;;14.00;99.90;;;;;;5132425;27;20430;-60
2023/10/20 06:21:02;;;;;;;1.60;1.00;;;14.00;99.90;;;;;;5133606;27;20461;-61
2023/10/20 06:23:29;;;;;;;2.90;1.00;;;14.00;99.90;;;;;;5131279;27;20589;-60
2023/10/20 06:25:57;;;;;;;2.08;1.17;;;14.10;99.90;;;;;;5132801;27;20505;-60
2023/10/20 06:28:24;;;;;;;1.90;0.80;;;14.00;99.90;;;;;;5132644;27;20486;-60
2023/10/20 06:30:53;;;;;;;2.10;0.97;;;14.00;99.90;;;;;;5133276;27;20430;-60
2023/10/20 06:33:20;;;;;;;1.80;0.98;;;14.00;99.90;;;;;;5133897;27;20893;-59
2023/10/20 06:35:52;;;;;;;2.50;1.40;;;14.20;99.90;;;;;;5133342;27;20414;-59
2023/10/20 06:38:25;;;;;;;2.00;0.90;;;14.20;99.90;;;;;;5133110;27;20423;-60
2023/10/20 06:40:53;;;;;;;2.53;1.00;;;14.10;99.90;;;;;;5132677;27;21008;-60
2023/10/20 06:43:20;;;;;;;1.52;0.93;;;14.20;99.90;;;;;;5132187;27;20426;-60
2023/10/20 06:45:57;;;;;;;2.60;1.00;;;14.10;99.90;;;;;;5133097;27;20429;-59
2023/10/20 06:48:24;;;;;;;3.13;1.10;;;14.20;99.90;;;;;;5132701;27;20521;-60
2023/10/20 06:50:51;;;;;;;2.20;1.20;;;14.30;99.90;;;;;;5135357;27;20486;-59
2023/10/20 06:53:19;;;;;;;2.10;1.00;;;14.30;99.90;;;;;;5136959;27;20462;-59
2023/10/20 06:55:48;;;;;;;1.88;1.20;;;14.30;99.90;;;;;;5136610;27;20833;-60
2023/10/20 06:58:17;;;;;;;2.03;1.10;;;14.40;99.90;;;;;;5136100;27;20790;-59
2023/10/20 07:00:45;;;;;;;2.95;1.40;;;14.40;99.90;;;;;;5136778;27;20423;-59
2023/10/20 07:03:14;;;;;;;2.80;1.30;;;14.40;99.90;;;;;;5136069;27;20418;-59
2023/10/20 07:05:41;;;;;;;2.15;1.10;;;14.40;99.90;;;;;;5136558;27;20519;-59
2023/10/20 07:08:10;;;;;;;3.77;1.20;;;14.40;99.90;;;;;;5137776;27;20409;-60
2023/10/20 07:10:38;;;;;;;2.42;1.70;;;14.50;99.90;;;;;;5138244;27;20461;-59
2023/10/20 07:13:08;;;;;;;4.35;1.30;;;14.50;99.90;;;;;;5133159;27;20857;-59
2023/10/20 07:15:35;;;;;;;3.17;1.40;;;14.50;99.90;;;;;;5135613;27;21213;-59
2023/10/20 07:18:02;;;;;;;3.00;1.40;;;14.60;99.90;;;;;;5136480;27;20430;-59
2023/10/20 07:20:32;;;;;;;3.10;1.60;;;14.60;99.90;;;;;;5126130;27;20445;-59
2023/10/20 07:22:59;;;;;;;1.90;1.10;;;14.60;99.90;;;;;;5131829;27;20426;-61
2023/10/20 07:25:26;;;;;;;2.40;1.30;;;14.70;99.90;;;;;;5133894;27;20458;-60
2023/10/20 07:27:54;;;;;;;2.00;1.30;;;14.70;99.90;;;;;;5134598;27;20480;-60
2023/10/20 07:30:21;;;;;;;2.60;1.42;;;14.80;99.90;;;;;;5130881;27;20430;-60
2023/10/20 07:32:49;;;;;;;3.37;1.70;;;14.80;99.90;;;;;;5132015;27;20434;-60
2023/10/20 07:35:17;;;;;;;2.30;1.30;;;14.60;99.90;;;;;;5135340;27;21030;-60
2023/10/20 07:37:45;;;;;;;3.65;1.23;;;14.60;99.90;;;;;;5133080;27;20437;-60
2023/10/20 07:40:13;;;;;;;2.60;1.50;;;14.60;99.90;;;;;;5133814;27;20484;-59
2023/10/20 07:42:40;;;;;;;3.45;1.33;;;14.50;99.90;;;;;;5132144;27;20454;-59
2023/10/20 07:45:08;;;;;;;2.22;1.20;;;14.60;99.90;;;;;;5132096;27;20782;-59
2023/10/20 07:47:36;;;;;;;2.47;1.40;;;14.60;99.90;;;;;;5135558;27;20846;-58
2023/10/20 07:50:04;;;;;;;2.38;1.50;;;14.70;99.90;;;;;;5134804;27;20430;-59
2023/10/20 07:52:31;;;;;;;3.28;1.65;;;14.80;99.90;;;;;;5132344;27;20857;-59
2023/10/20 07:55:01;;;;;;;4.05;2.00;;;14.70;99.90;;;;;;5135933;27;20763;-59
2023/10/20 07:57:28;;;;;;;2.50;1.50;;;14.80;99.90;;;;;;5133289;27;20479;-59
2023/10/20 07:59:55;;;;;;;3.55;1.38;;;14.80;99.90;;;;;;5134465;27;20648;-59
2023/10/20 08:02:23;;;;;;;2.10;1.30;;;14.70;99.90;;;;;;5131517;27;20425;-59
2023/10/20 08:04:50;;;;;;;3.50;1.50;;;14.60;99.90;;;;;;5133366;27;20699;-59
2023/10/20 08:07:18;;;;;;;1.90;1.40;;;14.60;99.90;;;;;;5131558;27;20846;-59
2023/10/20 08:09:45;;;;;;;2.35;1.20;;;14.70;99.90;;;;;;5134918;27;20434;-60
2023/10/20 08:12:13;;;;;;;2.50;1.40;;;14.80;99.90;;;;;;5136116;27;20418;-59
2023/10/20 08:14:40;;;;;;;2.00;1.20;;;14.90;99.90;;;;;;5133430;27;20825;-59
2023/10/20 08:17:10;;;;;;;2.00;1.20;;;14.90;99.90;;;;;;5130507;27;20853;-59
2023/10/20 08:19:37;;;;;;;2.30;1.40;;;14.90;99.90;;;;;;5133114;27;20422;-59
2023/10/20 08:22:04;;;;;;;2.33;1.35;;;14.90;99.90;;;;;;5131224;27;20926;-58
2023/10/20 08:24:32;;;;;;;2.47;1.70;;;14.90;99.90;;;;;;5131342;27;20483;-59
2023/10/20 08:26:59;;;;;;;3.75;1.70;;;14.80;99.90;;;;;;5132272;27;20691;-58
2023/10/20 08:29:28;;;;;;;2.53;1.43;;;14.80;99.90;;;;;;5128428;27;20488;-59
2023/10/20 08:31:55;;;;;;;3.65;1.60;;;14.90;99.90;;;;;;5125186;27;20450;-59
2023/10/20 08:34:23;;;;;;;2.75;1.30;;;14.90;99.90;;;;;;5134523;27;20422;-59
2023/10/20 08:36:50;;;;;;;2.20;1.27;;;14.90;99.90;;;;;;5135311;27;20422;-59
2023/10/20 08:39:19;;;;;;;2.83;1.52;;;15.00;99.90;;;;;;5134941;27;20602;-58
2023/10/20 08:41:46;;;;;;;3.20;1.30;;;15.10;99.90;;;;;;5133727;27;20411;-58
2023/10/20 08:44:14;;;;;;;3.50;1.60;;;15.20;99.90;;;;;;5133681;27;20422;-58
2023/10/20 08:46:44;;;;;;;2.20;1.20;;;15.30;99.90;;;;;;5134974;27;20541;-59
2023/10/20 08:49:12;;;;;;;2.60;1.77;;;15.50;99.90;;;;;;5134942;27;20425;-58
2023/10/20 08:51:39;;;;;;;3.97;1.80;;;15.50;99.90;;;;;;5134900;27;20529;-58
2023/10/20 08:54:09;;;;;;;2.20;1.80;;;15.70;99.90;;;;;;5135151;27;20475;-58
2023/10/20 08:56:36;;;;;;;2.30;1.35;;;15.70;99.90;;;;;;5135426;27;20777;-58
2023/10/20 08:59:05;;;;;;;6.18;1.70;;;15.70;99.90;;;;;;5135180;27;20791;-59
2023/10/20 09:01:33;;;;;;;2.90;1.40;;;15.90;99.90;;;;;;5134967;27;20418;-58
2023/10/20 09:04:04;;;;;;;2.90;1.80;;;16.00;99.90;;;;;;5134122;27;20435;-58
2023/10/20 09:06:31;;;;;;;2.53;1.70;;;15.90;99.90;;;;;;5127837;27;20434;-58
2023/10/20 09:08:59;;;;;;;6.20;2.13;;;15.90;99.90;;;;;;5134300;27;20438;-58
2023/10/20 09:11:30;;;;;;;2.10;1.50;;;15.90;99.90;;;;;;5130500;27;20423;-58
2023/10/20 09:13:58;;;;;;;4.07;1.48;;;16.00;99.90;;;;;;5133970;27;20441;-58
2023/10/20 09:16:25;;;;;;;3.35;2.00;;;16.10;99.90;;;;;;5134479;27;20424;-58
2023/10/20 09:18:54;;;;;;;3.25;1.90;;;16.00;99.90;;;;;;5134439;27;20469;-58
2023/10/20 09:21:25;;;;;;;3.25;2.28;;;15.90;99.90;;;;;;5133024;27;20423;-58
2023/10/20 09:23:56;;;;;;;2.90;1.60;;;15.90;99.90;;;;;;5131395;27;20436;-58
2023/10/20 09:26:24;;;;;;;2.60;1.90;;;15.90;99.90;;;;;;5133611;27;20426;-58
2023/10/20 09:28:53;;;;;;;2.00;1.40;;;15.90;99.90;;;;;;5133180;27;20421;-58
2023/10/20 09:31:21;;;;;;;2.30;1.30;;;15.90;99.90;;;;;;5112934;27;20536;-59
2023/10/20 09:33:48;;;;;;;2.10;1.30;;;16.00;99.90;;;;;;5132400;27;20462;-59
2023/10/20 09:36:16;;;;;;;2.53;1.70;;;16.10;99.90;;;;;;5132047;27;20568;-60
2023/10/20 09:38:46;;;;;;;2.30;1.40;;;16.10;99.90;;;;;;5120326;27;20853;-59
2023/10/20 09:41:15;;;;;;;3.10;1.30;;;15.90;99.90;;;;;;5132257;27;20406;-59
2023/10/20 09:43:48;;;;;;;3.60;1.80;;;16.00;99.90;;;;;;5130564;27;20433;-61
2023/10/20 09:46:43;;;;;;;2.13;1.30;;;16.10;99.90;;;;;;5129708;27;20440;-59
2023/10/20 09:49:15;;;;;;;1.92;1.15;;;16.30;99.90;;;;;;5112195;28;20469;-59
2023/10/20 09:51:45;;;;;;;3.10;1.30;;;16.50;99.90;;;;;;5131767;27;20728;-60
2023/10/20 09:54:14;;;;;;;3.30;1.40;;;16.60;99.90;;;;;;5125717;27;20927;-59
2023/10/20 09:56:44;;;;;;;2.00;1.10;;;16.70;99.90;;;;;;5111036;28;21020;-59
2023/10/20 09:59:17;;;;;;;1.35;1.10;;;16.80;99.90;;;;;;5125249;27;20457;-59
2023/10/20 10:01:45;;;;;;;2.50;1.13;;;16.90;99.90;;;;;;5132724;27;20418;-59
2023/10/20 10:04:12;;;;;;;1.80;1.00;;;16.90;99.90;;;;;;5133993;27;20433;-60
2023/10/20 10:06:40;;;;;;;1.70;1.10;;;16.90;99.90;;;;;;5129879;27;20430;-59
2023/10/20 10:09:08;;;;;;;2.63;1.33;;;16.80;99.90;;;;;;5132544;27;20921;-60
2023/10/20 10:11:42;;;;;;;2.13;1.20;;;16.80;99.90;;;;;;5132399;27;20953;-59
2023/10/20 10:14:18;;;;;;;1.87;1.00;;;16.70;99.90;;;;;;5132628;27;20411;-60
2023/10/20 10:16:51;;;;;;;1.80;1.10;;;16.80;99.90;;;;;;5133286;27;20802;-59
2023/10/20 10:19:18;;;;;;;2.88;0.90;;;16.90;99.90;;;;;;5131835;27;20414;-59
2023/10/20 10:21:50;;;;;;;1.60;0.90;;;17.00;99.90;;;;;;5133690;27;20414;-59
2023/10/20 10:24:19;;;;;;;1.90;0.90;;;17.10;99.90;;;;;;5133083;27;20470;-60
2023/10/20 10:26:51;;;;;;;1.30;0.90;;;17.30;99.90;;;;;;5138391;27;20418;-59
2023/10/20 10:29:19;;;;;;;1.20;0.80;;;17.40;99.90;;;;;;5137086;27;20414;-59
2023/10/20 10:31:47;;;;;;;1.38;0.80;;;17.50;99.90;;;;;;5136736;27;20861;-60
2023/10/20 10:34:14;;;;;;;2.30;0.80;;;17.70;99.90;;;;;;5135241;27;20430;-60
2023/10/20 10:36:46;;;;;;;2.10;1.00;;;17.90;99.90;;;;;;5134230;27;20418;-60
2023/10/20 10:39:27;;;;;;;1.10;0.73;;;17.90;99.90;;;;;;5137800;27;20418;-59
2023/10/20 10:42:01;;;;;;;1.60;0.80;;;18.00;99.90;;;;;;5135905;27;21092;-59
2023/10/20 10:44:33;;;;;;;1.35;0.73;;;18.00;99.90;;;;;;5134858;27;20414;-58
2023/10/20 10:47:00;;;;;;;1.30;0.80;;;18.00;99.90;;;;;;5136368;27;20465;-58
2023/10/20 10:49:27;;;;;;;0.90;0.60;;;18.10;99.90;;;;;;5135749;27;20791;-59
2023/10/20 10:51:56;;;;;;;0.87;0.50;;;17.90;99.90;;;;;;5133945;27;20439;-58
2023/10/20 10:54:26;;;;;;;1.13;0.60;;;17.90;99.90;;;;;;5134940;27;20411;-58
2023/10/20 10:56:55;;;;;;;0.90;0.40;;;18.00;99.90;;;;;;5132974;27;20628;-64
2023/10/20 10:59:23;;;;;;;0.70;0.50;;;18.00;99.90;;;;;;5129341;27;20727;-59
2023/10/20 11:01:51;;;;;;;0.60;0.40;;;18.00;99.90;;;;;;5134507;27;20438;-59
2023/10/20 11:04:19;;;;;;;1.70;0.40;;;18.10;99.90;;;;;;5135586;27;20422;-59
2023/10/20 11:06:49;;;;;;;0.70;0.40;;;18.10;99.90;;;;;;5135492;27;20450;-58
2023/10/20 11:09:19;;;;;;;0.40;0.30;;;18.20;99.90;;;;;;5136845;27;20764;-58
2023/10/20 11:11:48;;;;;;;0.40;0.20;;;18.10;84.30;;;;;;5136602;27;20703;-59
2023/10/20 11:14:20;;;;;;;0.50;0.20;;;18.10;45.00;;;;;;5135859;27;20418;-58
2023/10/20 11:16:49;;;;;;;0.40;0.20;;;18.00;33.50;;;;;;5135178;27;20422;-58
2023/10/20 11:19:17;;;;;;;0.30;0.10;;;18.00;49.80;;;;;;5136823;27;20458;-58
2023/10/20 11:21:49;;;;;;;0.30;0.10;;;17.90;6.90;;;;;;5135303;27;20414;-58
2023/10/20 11:24:26;;;;;;;0.30;0.10;;;17.80;25.00;;;;;;5136522;27;20422;-58
2023/10/20 11:26:57;;;;;;;0.40;0.20;;;17.80;18.50;;;;;;5137405;27;20425;-58
2023/10/20 11:29:28;;;;;;;0.60;0.20;;;17.90;21.50;;;;;;5136167;27;20509;-57
2023/10/20 11:31:57;;;;;;;0.38;0.20;;;17.90;30.70;;;;;;5135551;27;20462;-58
2023/10/20 11:34:25;;;;;;;0.35;0.10;;;17.80;23.20;;;;;;5133706;27;20849;-58
2023/10/20 11:36:53;;;;;;;0.40;0.10;;;17.80;32.70;;;;;;5132124;27;20517;-58
2023/10/20 11:39:24;;;;;;;0.40;0.20;;;17.90;39.80;;;;;;5135320;27;20422;-58
2023/10/20 11:41:57;;;;;;;0.30;0.10;;;17.80;34.60;;;;;;5135625;27;20425;-57
2023/10/20 11:44:26;;;;;;;0.30;0.10;;;17.80;38.90;;;;;;5133920;27;20418;-57
2023/10/20 11:46:53;;;;;;;0.50;0.10;;;17.80;30.20;;;;;;5136217;27;20423;-58
2023/10/20 11:49:20;;;;;;;0.40;0.10;;;17.70;31.70;;;;;;5135064;27;20845;-57
2023/10/20 11:51:48;;;;;;;0.30;0.10;;;17.70;21.90;;;;;;5135244;27;20430;-57
2023/10/20 11:54:15;;;;;;;1.25;0.20;;;17.70;29.70;;;;;;5135466;27;20425;-59
2023/10/20 11:56:42;;;;;;;0.40;0.10;;;17.70;53.20;;;;;;5134816;27;20478;-59
2023/10/20 11:59:09;;;;;;;0.40;0.20;;;17.70;43.20;;;;;;5135005;27;20882;-59
2023/10/20 12:01:38;;;;;;;0.30;0.10;;;17.70;30.50;;;;;;5135312;27;20533;-58
2023/10/20 12:04:06;;;;;;;0.30;0.10;;;17.70;32.80;;;;;;5133824;27;20709;-59
2023/10/20 12:06:36;;;;;;;0.30;0.10;;;17.60;49.40;;;;;;5132628;27;20943;-57
2023/10/20 12:09:03;;;;;;;1.77;0.10;;;17.60;41.30;;;;;;5133309;27;20715;-59
2023/10/20 12:11:30;;;;;;;0.30;0.10;;;17.70;45.10;;;;;;5132445;27;20846;-57
2023/10/20 12:13:58;;;;;;;0.30;0.10;;;17.80;41.80;;;;;;5132244;27;20467;-57
2023/10/20 12:16:26;;;;;;;0.40;0.10;;;17.80;47.80;;;;;;5134900;27;20418;-57
2023/10/20 12:18:54;;;;;;;0.30;0.10;;;17.80;46.10;;;;;;5129859;27;20464;-58
2023/10/20 12:21:21;;;;;;;0.30;0.10;;;17.80;57.00;;;;;;5130192;27;21579;-58
2023/10/20 12:23:48;;;;;;;0.30;0.10;;;17.80;46.90;;;;;;5129746;27;20422;-58
2023/10/20 12:26:15;;;;;;;0.40;0.20;;;17.80;49.20;;;;;;5133440;27;20886;-58
2023/10/20 12:28:42;;;;;;;0.30;0.10;;;17.80;50.10;;;;;;5129541;27;20419;-58
2023/10/20 12:31:09;;;;;;;0.30;0.10;;;18.00;57.10;;;;;;5128796;27;20429;-58
2023/10/20 12:33:36;;;;;;;0.30;0.10;;;18.20;36.90;;;;;;5132030;27;20503;-58
2023/10/20 12:36:05;;;;;;;0.40;0.20;;;18.40;14.30;;;;;;5130394;27;20487;-57
2023/10/20 12:38:32;;;;;;;0.30;0.20;;;18.40;15.00;;;;;;5132779;27;20464;-58
2023/10/20 12:41:00;;;;;;;0.40;0.20;;;18.60;16.80;;;;;;5133561;27;20478;-58
2023/10/20 12:43:27;;;;;;;0.80;0.30;;;18.70;2.90;;;;;;5133198;27;20419;-58
2023/10/20 12:45:54;;;;;;;0.40;0.20;;;18.70;7.40;;;;;;5133893;27;20451;-58
2023/10/20 12:48:21;;;;;;;0.30;0.10;;;18.70;1.00;;;;;;5132638;27;20422;-58
2023/10/20 12:50:48;;;;;;;0.40;0.20;;;18.50;1.00;;;;;;5131814;27;20451;-59
2023/10/20 12:53:16;;;;;;;0.30;0.10;;;18.50;1.70;;;;;;5132574;27;20701;-58
2023/10/20 12:55:43;;;;;;;0.32;0.20;;;18.60;6.00;;;;;;5134264;27;20496;-58
2023/10/20 12:58:10;;;;;;;0.40;0.10;;;18.70;8.50;;;;;;5133460;27;20479;-59
2023/10/20 13:00:39;;;;;;;0.30;0.10;;;18.70;1.00;;;;;;5132838;27;20419;-58
2023/10/20 13:03:06;;;;;;;0.40;0.20;;;18.80;4.90;;;;;;5133875;27;20423;-58
2023/10/20 13:05:34;;;;;;;0.30;0.10;;;18.80;1.00;;;;;;5133959;27;20414;-58
2023/10/20 13:08:01;;;;;;;0.85;0.20;;;18.80;1.00;;;;;;5132488;27;20415;-58